Terminal Aerodrome Forecast
Issued by NWS Charleston, WV

Current Version | Previous Version | Text Only | Print | Product List | Glossary Off
Versions: 1 2 3 4 5 6 7 8 9 10 11 12 13 14 15 16 17 18 19 20 21

784
FTUS41 KRLX 111120
TAFCRW
TAF
KCRW 111120Z 1112/1212 27005KT P6SM -SN BKN030
     FM111300 27006KT P6SM BKN035
     FM111900 29007KT P6SM SCT035
     FM120200 00000KT P6SM BKN250
     FM120700 00000KT P6SM BKN110=

USA.gov is the U.S. government's official web portal to all federal, state and local government web resources and services.